sensor_id;sensor_type;location;lat;lon;timestamp;P1;durP1;ratioP1;P2;durP2;ratioP2
6973;SDS011;3527;52.376;8.990;2023-02-13T00:00:19;27.03;;;18.60;;
6973;SDS011;3527;52.376;8.990;2023-02-13T00:02:48;27.30;;;18.50;;
6973;SDS011;3527;52.376;8.990;2023-02-13T00:05:15;29.40;;;19.47;;
6973;SDS011;3527;52.376;8.990;2023-02-13T00:07:42;27.90;;;18.00;;
6973;SDS011;3527;52.376;8.990;2023-02-13T00:10:09;24.73;;;17.90;;
6973;SDS011;3527;52.376;8.990;2023-02-13T00:12:36;23.87;;;18.23;;
6973;SDS011;3527;52.376;8.990;2023-02-13T00:15:03;27.20;;;17.83;;
6973;SDS011;3527;52.376;8.990;2023-02-13T00:17:31;26.17;;;17.57;;
6973;SDS011;3527;52.376;8.990;2023-02-13T00:19:57;25.00;;;18.07;;
6973;SDS011;3527;52.376;8.990;2023-02-13T00:22:25;26.10;;;17.33;;
6973;SDS011;3527;52.376;8.990;2023-02-13T00:24:52;24.67;;;17.33;;
6973;SDS011;3527;52.376;8.990;2023-02-13T00:27:18;26.17;;;18.17;;
6973;SDS011;3527;52.376;8.990;2023-02-13T00:29:45;28.83;;;18.90;;
6973;SDS011;3527;52.376;8.990;2023-02-13T00:32:12;26.33;;;18.43;;
6973;SDS011;3527;52.376;8.990;2023-02-13T00:34:40;26.40;;;18.47;;
6973;SDS011;3527;52.376;8.990;2023-02-13T00:37:07;26.67;;;17.10;;
6973;SDS011;3527;52.376;8.990;2023-02-13T00:39:33;26.10;;;16.37;;
6973;SDS011;3527;52.376;8.990;2023-02-13T00:42:00;23.70;;;15.90;;
6973;SDS011;3527;52.376;8.990;2023-02-13T00:44:27;25.70;;;15.80;;
6973;SDS011;3527;52.376;8.990;2023-02-13T00:46:53;26.63;;;16.97;;
6973;SDS011;3527;52.376;8.990;2023-02-13T00:49:20;27.13;;;16.87;;
6973;SDS011;3527;52.376;8.990;2023-02-13T00:51:47;23.83;;;17.00;;
6973;SDS011;3527;52.376;8.990;2023-02-13T00:54:14;25.27;;;17.20;;
6973;SDS011;3527;52.376;8.990;2023-02-13T00:56:40;23.83;;;16.30;;
6973;SDS011;3527;52.376;8.990;2023-02-13T00:59:07;24.63;;;16.03;;
6973;SDS011;3527;52.376;8.990;2023-02-13T01:01:34;23.53;;;16.03;;
6973;SDS011;3527;52.376;8.990;2023-02-13T01:04:01;23.40;;;16.33;;
6973;SDS011;3527;52.376;8.990;2023-02-13T01:06:27;25.03;;;15.67;;
6973;SDS011;3527;52.376;8.990;2023-02-13T01:08:54;26.57;;;16.60;;
6973;SDS011;3527;52.376;8.990;2023-02-13T01:11:21;29.90;;;17.63;;
6973;SDS011;3527;52.376;8.990;2023-02-13T01:13:48;25.10;;;16.70;;
6973;SDS011;3527;52.376;8.990;2023-02-13T01:16:14;28.00;;;18.50;;
6973;SDS011;3527;52.376;8.990;2023-02-13T01:18:43;26.57;;;18.93;;
6973;SDS011;3527;52.376;8.990;2023-02-13T01:21:17;31.07;;;19.07;;
6973;SDS011;3527;52.376;8.990;2023-02-13T01:23:45;30.80;;;20.70;;
6973;SDS011;3527;52.376;8.990;2023-02-13T01:26:17;30.97;;;18.93;;
6973;SDS011;3527;52.376;8.990;2023-02-13T01:28:51;29.77;;;19.90;;
6973;SDS011;3527;52.376;8.990;2023-02-13T01:31:20;27.97;;;18.00;;
6973;SDS011;3527;52.376;8.990;2023-02-13T01:33:47;28.77;;;17.63;;
6973;SDS011;3527;52.376;8.990;2023-02-13T01:36:14;28.60;;;17.63;;
6973;SDS011;3527;52.376;8.990;2023-02-13T01:38:41;27.80;;;17.83;;
6973;SDS011;3527;52.376;8.990;2023-02-13T01:41:07;30.43;;;18.87;;
6973;SDS011;3527;52.376;8.990;2023-02-13T01:43:42;28.03;;;18.30;;
6973;SDS011;3527;52.376;8.990;2023-02-13T01:46:09;29.17;;;18.77;;
6973;SDS011;3527;52.376;8.990;2023-02-13T01:48:38;28.03;;;19.47;;
6973;SDS011;3527;52.376;8.990;2023-02-13T01:51:07;26.17;;;17.30;;
6973;SDS011;3527;52.376;8.990;2023-02-13T01:53:45;33.50;;;19.50;;
6973;SDS011;3527;52.376;8.990;2023-02-13T01:56:20;30.93;;;19.80;;
6973;SDS011;3527;52.376;8.990;2023-02-13T01:59:15;28.17;;;18.10;;
6973;SDS011;3527;52.376;8.990;2023-02-13T02:01:45;28.90;;;19.03;;
6973;SDS011;3527;52.376;8.990;2023-02-13T02:04:14;29.33;;;18.17;;
6973;SDS011;3527;52.376;8.990;2023-02-13T02:06:45;28.30;;;18.07;;
6973;SDS011;3527;52.376;8.990;2023-02-13T02:09:17;30.97;;;19.00;;
6973;SDS011;3527;52.376;8.990;2023-02-13T02:11:58;32.57;;;19.67;;
6973;SDS011;3527;52.376;8.990;2023-02-13T02:14:28;29.47;;;19.17;;
6973;SDS011;3527;52.376;8.990;2023-02-13T02:16:56;29.93;;;19.73;;
6973;SDS011;3527;52.376;8.990;2023-02-13T02:19:35;32.73;;;20.33;;
6973;SDS011;3527;52.376;8.990;2023-02-13T02:41:09;33.20;;;20.23;;
6973;SDS011;3527;52.376;8.990;2023-02-13T02:46:52;33.63;;;20.70;;
6973;SDS011;3527;52.376;8.990;2023-02-13T02:49:58;38.70;;;20.67;;
6973;SDS011;3527;52.376;8.990;2023-02-13T02:52:41;33.77;;;19.70;;
6973;SDS011;3527;52.376;8.990;2023-02-13T02:55:40;34.10;;;20.60;;
6973;SDS011;3527;52.376;8.990;2023-02-13T02:58:27;34.37;;;20.10;;
6973;SDS011;3527;52.376;8.990;2023-02-13T03:01:18;33.87;;;20.80;;
6973;SDS011;3527;52.376;8.990;2023-02-13T03:04:29;36.37;;;21.30;;
6973;SDS011;3527;52.376;8.990;2023-02-13T03:07:18;32.90;;;19.43;;
6973;SDS011;3527;52.376;8.990;2023-02-13T03:09:51;29.57;;;18.80;;
6973;SDS011;3527;52.376;8.990;2023-02-13T03:12:43;32.83;;;18.90;;
6973;SDS011;3527;52.376;8.990;2023-02-13T03:15:34;29.00;;;18.63;;
6973;SDS011;3527;52.376;8.990;2023-02-13T03:18:22;29.07;;;18.03;;
6973;SDS011;3527;52.376;8.990;2023-02-13T03:21:15;26.50;;;17.13;;
6973;SDS011;3527;52.376;8.990;2023-02-13T03:24:08;28.77;;;18.03;;
6973;SDS011;3527;52.376;8.990;2023-02-13T03:27:26;29.67;;;17.10;;
6973;SDS011;3527;52.376;8.990;2023-02-13T03:30:13;26.27;;;17.13;;
6973;SDS011;3527;52.376;8.990;2023-02-13T03:32:54;25.67;;;16.10;;
6973;SDS011;3527;52.376;8.990;2023-02-13T03:39:33;25.90;;;14.67;;
6973;SDS011;3527;52.376;8.990;2023-02-13T03:42:03;23.10;;;14.83;;
6973;SDS011;3527;52.376;8.990;2023-02-13T03:44:46;24.20;;;15.13;;
6973;SDS011;3527;52.376;8.990;2023-02-13T03:47:38;27.87;;;16.30;;
6973;SDS011;3527;52.376;8.990;2023-02-13T03:50:06;26.97;;;15.07;;
6973;SDS011;3527;52.376;8.990;2023-02-13T03:53:10;23.10;;;15.23;;
6973;SDS011;3527;52.376;8.990;2023-02-13T03:55:36;23.73;;;13.57;;
6973;SDS011;3527;52.376;8.990;2023-02-13T03:58:57;22.73;;;13.80;;
6973;SDS011;3527;52.376;8.990;2023-02-13T04:01:38;24.30;;;14.00;;
6973;SDS011;3527;52.376;8.990;2023-02-13T04:04:26;22.50;;;13.97;;
6973;SDS011;3527;52.376;8.990;2023-02-13T04:07:09;24.63;;;14.67;;
6973;SDS011;3527;52.376;8.990;2023-02-13T04:09:55;23.80;;;14.40;;
6973;SDS011;3527;52.376;8.990;2023-02-13T04:12:36;26.03;;;16.33;;
6973;SDS011;3527;52.376;8.990;2023-02-13T04:15:13;23.07;;;14.73;;
6973;SDS011;3527;52.376;8.990;2023-02-13T04:17:44;23.53;;;14.07;;
6973;SDS011;3527;52.376;8.990;2023-02-13T04:20:15;21.17;;;13.23;;
6973;SDS011;3527;52.376;8.990;2023-02-13T04:22:43;18.93;;;11.90;;
6973;SDS011;3527;52.376;8.990;2023-02-13T04:25:11;20.27;;;12.87;;
6973;SDS011;3527;52.376;8.990;2023-02-13T04:27:40;20.03;;;12.87;;
6973;SDS011;3527;52.376;8.990;2023-02-13T04:30:07;20.27;;;12.40;;
6973;SDS011;3527;52.376;8.990;2023-02-13T04:32:35;20.03;;;12.43;;
6973;SDS011;3527;52.376;8.990;2023-02-13T04:35:02;19.77;;;12.37;;
6973;SDS011;3527;52.376;8.990;2023-02-13T04:37:29;21.10;;;11.93;;
6973;SDS011;3527;52.376;8.990;2023-02-13T04:39:56;21.13;;;13.57;;
6973;SDS011;3527;52.376;8.990;2023-02-13T04:42:22;22.00;;;12.97;;
6973;SDS011;3527;52.376;8.990;2023-02-13T04:44:49;18.43;;;12.77;;
6973;SDS011;3527;52.376;8.990;2023-02-13T04:47:16;21.20;;;12.07;;
6973;SDS011;3527;52.376;8.990;2023-02-13T04:49:42;18.53;;;12.17;;
6973;SDS011;3527;52.376;8.990;2023-02-13T04:52:09;17.47;;;11.27;;
6973;SDS011;3527;52.376;8.990;2023-02-13T04:54:36;17.13;;;11.10;;
6973;SDS011;3527;52.376;8.990;2023-02-13T04:57:03;15.67;;;10.70;;
6973;SDS011;3527;52.376;8.990;2023-02-13T04:59:30;16.80;;;10.70;;
6973;SDS011;3527;52.376;8.990;2023-02-13T05:01:56;16.00;;;9.60;;
6973;SDS011;3527;52.376;8.990;2023-02-13T05:04:24;16.50;;;9.83;;
6973;SDS011;3527;52.376;8.990;2023-02-13T05:06:51;17.30;;;9.87;;
6973;SDS011;3527;52.376;8.990;2023-02-13T05:09:18;14.87;;;9.23;;
6973;SDS011;3527;52.376;8.990;2023-02-13T05:11:45;13.00;;;8.57;;
6973;SDS011;3527;52.376;8.990;2023-02-13T05:14:11;14.10;;;8.43;;
6973;SDS011;3527;52.376;8.990;2023-02-13T05:16:38;13.97;;;8.57;;
6973;SDS011;3527;52.376;8.990;2023-02-13T05:19:05;13.50;;;7.83;;
6973;SDS011;3527;52.376;8.990;2023-02-13T05:21:32;11.70;;;8.23;;
6973;SDS011;3527;52.376;8.990;2023-02-13T05:24:17;14.53;;;8.90;;
6973;SDS011;3527;52.376;8.990;2023-02-13T05:26:46;11.97;;;7.73;;
6973;SDS011;3527;52.376;8.990;2023-02-13T05:29:12;12.40;;;7.67;;
6973;SDS011;3527;52.376;8.990;2023-02-13T05:31:45;13.30;;;7.93;;
6973;SDS011;3527;52.376;8.990;2023-02-13T05:34:13;11.90;;;7.80;;
6973;SDS011;3527;52.376;8.990;2023-02-13T05:36:41;14.70;;;7.93;;
6973;SDS011;3527;52.376;8.990;2023-02-13T05:39:08;13.53;;;7.50;;
6973;SDS011;3527;52.376;8.990;2023-02-13T05:41:34;14.17;;;8.27;;
6973;SDS011;3527;52.376;8.990;2023-02-13T05:44:02;12.53;;;7.23;;
6973;SDS011;3527;52.376;8.990;2023-02-13T05:46:28;14.63;;;9.17;;
6973;SDS011;3527;52.376;8.990;2023-02-13T05:48:55;13.07;;;7.93;;
6973;SDS011;3527;52.376;8.990;2023-02-13T05:51:22;14.17;;;8.10;;
6973;SDS011;3527;52.376;8.990;2023-02-13T05:53:49;14.33;;;8.40;;
6973;SDS011;3527;52.376;8.990;2023-02-13T05:56:16;15.73;;;8.83;;
6973;SDS011;3527;52.376;8.990;2023-02-13T05:58:43;15.63;;;9.27;;
6973;SDS011;3527;52.376;8.990;2023-02-13T06:01:10;16.20;;;8.80;;
6973;SDS011;3527;52.376;8.990;2023-02-13T06:03:37;18.87;;;10.13;;
6973;SDS011;3527;52.376;8.990;2023-02-13T06:06:05;13.50;;;8.33;;
6973;SDS011;3527;52.376;8.990;2023-02-13T06:08:32;16.03;;;9.13;;
6973;SDS011;3527;52.376;8.990;2023-02-13T06:10:59;18.13;;;9.07;;
6973;SDS011;3527;52.376;8.990;2023-02-13T06:13:26;21.67;;;11.13;;
6973;SDS011;3527;52.376;8.990;2023-02-13T06:15:53;17.83;;;10.00;;
6973;SDS011;3527;52.376;8.990;2023-02-13T06:18:20;19.13;;;11.00;;
6973;SDS011;3527;52.376;8.990;2023-02-13T06:20:47;24.13;;;11.33;;
6973;SDS011;3527;52.376;8.990;2023-02-13T06:23:13;22.23;;;11.83;;
6973;SDS011;3527;52.376;8.990;2023-02-13T06:25:41;23.93;;;12.63;;
6973;SDS011;3527;52.376;8.990;2023-02-13T06:28:08;26.33;;;13.93;;
6973;SDS011;3527;52.376;8.990;2023-02-13T06:30:34;25.83;;;12.80;;
6973;SDS011;3527;52.376;8.990;2023-02-13T06:33:01;24.67;;;14.20;;
6973;SDS011;3527;52.376;8.990;2023-02-13T06:35:28;27.77;;;14.03;;
6973;SDS011;3527;52.376;8.990;2023-02-13T06:37:55;28.30;;;14.73;;
6973;SDS011;3527;52.376;8.990;2023-02-13T06:40:22;30.67;;;15.07;;
6973;SDS011;3527;52.376;8.990;2023-02-13T06:42:49;27.27;;;13.77;;
6973;SDS011;3527;52.376;8.990;2023-02-13T06:45:15;27.80;;;15.43;;
6973;SDS011;3527;52.376;8.990;2023-02-13T06:47:43;34.23;;;16.73;;
6973;SDS011;3527;52.376;8.990;2023-02-13T06:50:12;31.27;;;15.40;;
6973;SDS011;3527;52.376;8.990;2023-02-13T06:52:49;32.23;;;15.77;;
6973;SDS011;3527;52.376;8.990;2023-02-13T06:55:17;31.10;;;15.10;;
6973;SDS011;3527;52.376;8.990;2023-02-13T06:57:46;38.83;;;17.50;;
6973;SDS011;3527;52.376;8.990;2023-02-13T07:00:14;29.70;;;14.43;;
6973;SDS011;3527;52.376;8.990;2023-02-13T07:02:43;28.10;;;14.77;;
6973;SDS011;3527;52.376;8.990;2023-02-13T07:05:11;30.37;;;15.70;;
6973;SDS011;3527;52.376;8.990;2023-02-13T07:07:39;35.10;;;15.83;;
6973;SDS011;3527;52.376;8.990;2023-02-13T07:10:08;30.30;;;16.23;;
6973;SDS011;3527;52.376;8.990;2023-02-13T07:12:37;32.27;;;16.13;;
6973;SDS011;3527;52.376;8.990;2023-02-13T07:15:04;31.50;;;15.33;;
6973;SDS011;3527;52.376;8.990;2023-02-13T07:17:31;31.77;;;15.93;;
6973;SDS011;3527;52.376;8.990;2023-02-13T07:19:59;31.97;;;15.70;;
6973;SDS011;3527;52.376;8.990;2023-02-13T07:22:26;34.40;;;15.43;;
6973;SDS011;3527;52.376;8.990;2023-02-13T07:24:53;24.73;;;13.33;;
6973;SDS011;3527;52.376;8.990;2023-02-13T07:27:20;27.47;;;14.00;;
6973;SDS011;3527;52.376;8.990;2023-02-13T07:29:49;28.67;;;14.63;;
6973;SDS011;3527;52.376;8.990;2023-02-13T07:32:16;26.30;;;14.20;;
6973;SDS011;3527;52.376;8.990;2023-02-13T07:34:42;24.03;;;12.13;;
6973;SDS011;3527;52.376;8.990;2023-02-13T07:37:26;24.33;;;12.47;;
6973;SDS011;3527;52.376;8.990;2023-02-13T07:39:54;21.10;;;11.43;;
6973;SDS011;3527;52.376;8.990;2023-02-13T07:42:21;23.73;;;11.60;;
6973;SDS011;3527;52.376;8.990;2023-02-13T07:44:48;24.67;;;12.77;;
6973;SDS011;3527;52.376;8.990;2023-02-13T07:47:15;25.77;;;12.23;;
6973;SDS011;3527;52.376;8.990;2023-02-13T07:49:45;22.70;;;11.90;;
6973;SDS011;3527;52.376;8.990;2023-02-13T07:52:12;22.57;;;10.97;;
6973;SDS011;3527;52.376;8.990;2023-02-13T07:54:38;18.77;;;10.53;;
6973;SDS011;3527;52.376;8.990;2023-02-13T07:57:13;19.20;;;11.50;;
6973;SDS011;3527;52.376;8.990;2023-02-13T07:59:40;21.50;;;11.37;;
6973;SDS011;3527;52.376;8.990;2023-02-13T08:02:11;25.57;;;11.70;;
6973;SDS011;3527;52.376;8.990;2023-02-13T08:04:40;20.10;;;10.10;;
6973;SDS011;3527;52.376;8.990;2023-02-13T08:07:07;21.30;;;11.13;;
6973;SDS011;3527;52.376;8.990;2023-02-13T08:09:34;23.33;;;10.90;;
6973;SDS011;3527;52.376;8.990;2023-02-13T08:12:19;18.60;;;10.77;;
6973;SDS011;3527;52.376;8.990;2023-02-13T08:14:45;20.97;;;11.33;;
6973;SDS011;3527;52.376;8.990;2023-02-13T08:17:12;20.13;;;11.67;;
6973;SDS011;3527;52.376;8.990;2023-02-13T08:19:39;21.00;;;11.07;;
6973;SDS011;3527;52.376;8.990;2023-02-13T08:22:06;18.63;;;10.63;;
6973;SDS011;3527;52.376;8.990;2023-02-13T08:24:33;18.33;;;9.90;;
6973;SDS011;3527;52.376;8.990;2023-02-13T08:27:00;16.60;;;10.00;;
6973;SDS011;3527;52.376;8.990;2023-02-13T08:29:26;17.43;;;9.87;;
6973;SDS011;3527;52.376;8.990;2023-02-13T08:31:53;19.97;;;10.43;;
6973;SDS011;3527;52.376;8.990;2023-02-13T08:34:20;17.73;;;9.93;;
6973;SDS011;3527;52.376;8.990;2023-02-13T08:36:47;15.93;;;9.37;;
6973;SDS011;3527;52.376;8.990;2023-02-13T08:39:13;16.07;;;9.53;;
6973;SDS011;3527;52.376;8.990;2023-02-13T08:41:40;17.77;;;10.07;;
6973;SDS011;3527;52.376;8.990;2023-02-13T08:44:09;16.27;;;9.33;;
6973;SDS011;3527;52.376;8.990;2023-02-13T08:46:36;17.27;;;8.90;;
6973;SDS011;3527;52.376;8.990;2023-02-13T08:49:03;16.73;;;9.93;;
6973;SDS011;3527;52.376;8.990;2023-02-13T08:51:30;15.47;;;8.97;;
6973;SDS011;3527;52.376;8.990;2023-02-13T08:53:57;15.87;;;8.00;;
6973;SDS011;3527;52.376;8.990;2023-02-13T08:56:24;16.53;;;9.43;;
6973;SDS011;3527;52.376;8.990;2023-02-13T08:58:50;14.13;;;8.43;;
6973;SDS011;3527;52.376;8.990;2023-02-13T09:01:18;13.90;;;7.93;;
6973;SDS011;3527;52.376;8.990;2023-02-13T09:03:45;15.43;;;8.53;;
6973;SDS011;3527;52.376;8.990;2023-02-13T09:06:11;12.97;;;7.63;;
6973;SDS011;3527;52.376;8.990;2023-02-13T09:08:39;13.80;;;7.77;;
6973;SDS011;3527;52.376;8.990;2023-02-13T09:11:05;16.07;;;7.87;;
6973;SDS011;3527;52.376;8.990;2023-02-13T09:13:33;13.40;;;8.00;;
6973;SDS011;3527;52.376;8.990;2023-02-13T09:16:03;12.50;;;7.67;;
6973;SDS011;3527;52.376;8.990;2023-02-13T09:18:32;13.37;;;7.53;;
6973;SDS011;3527;52.376;8.990;2023-02-13T09:21:03;15.43;;;8.03;;
6973;SDS011;3527;52.376;8.990;2023-02-13T09:23:33;12.80;;;7.30;;
6973;SDS011;3527;52.376;8.990;2023-02-13T09:26:01;15.57;;;8.03;;
6973;SDS011;3527;52.376;8.990;2023-02-13T09:28:30;10.70;;;6.87;;
6973;SDS011;3527;52.376;8.990;2023-02-13T09:30:59;13.37;;;7.93;;
6973;SDS011;3527;52.376;8.990;2023-02-13T09:33:37;13.17;;;6.83;;
6973;SDS011;3527;52.376;8.990;2023-02-13T09:36:07;14.23;;;7.87;;
6973;SDS011;3527;52.376;8.990;2023-02-13T09:38:35;13.97;;;7.30;;
6973;SDS011;3527;52.376;8.990;2023-02-13T09:41:04;12.47;;;8.07;;
6973;SDS011;3527;52.376;8.990;2023-02-13T09:44:22;12.57;;;7.27;;
6973;SDS011;3527;52.376;8.990;2023-02-13T09:46:29;13.90;;;7.17;;
6973;SDS011;3527;52.376;8.990;2023-02-13T09:49:00;13.47;;;7.00;;
6973;SDS011;3527;52.376;8.990;2023-02-13T09:51:33;12.90;;;6.97;;
6973;SDS011;3527;52.376;8.990;2023-02-13T09:54:01;11.47;;;7.07;;
6973;SDS011;3527;52.376;8.990;2023-02-13T09:56:36;12.60;;;6.87;;
6973;SDS011;3527;52.376;8.990;2023-02-13T09:59:19;9.33;;;6.30;;
6973;SDS011;3527;52.376;8.990;2023-02-13T10:01:56;13.93;;;6.83;;
6973;SDS011;3527;52.376;8.990;2023-02-13T10:04:51;10.30;;;6.33;;
6973;SDS011;3527;52.376;8.990;2023-02-13T10:13:03;11.67;;;7.13;;
6973;SDS011;3527;52.376;8.990;2023-02-13T10:15:36;11.90;;;6.67;;
6973;SDS011;3527;52.376;8.990;2023-02-13T10:18:24;10.27;;;6.33;;
6973;SDS011;3527;52.376;8.990;2023-02-13T10:20:59;13.43;;;8.07;;
6973;SDS011;3527;52.376;8.990;2023-02-13T10:23:32;12.03;;;7.03;;
6973;SDS011;3527;52.376;8.990;2023-02-13T10:26:06;14.70;;;8.00;;
6973;SDS011;3527;52.376;8.990;2023-02-13T10:31:47;12.93;;;7.60;;
6973;SDS011;3527;52.376;8.990;2023-02-13T10:34:23;13.03;;;7.00;;
6973;SDS011;3527;52.376;8.990;2023-02-13T10:36:52;11.60;;;7.43;;
6973;SDS011;3527;52.376;8.990;2023-02-13T10:39:26;11.40;;;6.80;;
6973;SDS011;3527;52.376;8.990;2023-02-13T10:44:32;12.47;;;6.90;;
6973;SDS011;3527;52.376;8.990;2023-02-13T10:52:32;14.57;;;7.93;;
6973;SDS011;3527;52.376;8.990;2023-02-13T11:00:47;13.37;;;7.10;;
6973;SDS011;3527;52.376;8.990;2023-02-13T11:03:31;12.70;;;7.63;;
6973;SDS011;3527;52.376;8.990;2023-02-13T11:05:59;11.73;;;6.87;;
6973;SDS011;3527;52.376;8.990;2023-02-13T11:11:19;11.13;;;6.63;;
6973;SDS011;3527;52.376;8.990;2023-02-13T11:19:33;10.40;;;6.60;;
6973;SDS011;3527;52.376;8.990;2023-02-13T11:22:05;10.20;;;6.53;;
6973;SDS011;3527;52.376;8.990;2023-02-13T11:24:41;12.93;;;6.50;;
6973;SDS011;3527;52.376;8.990;2023-02-13T11:27:21;10.10;;;6.27;;
6973;SDS011;3527;52.376;8.990;2023-02-13T11:29:52;11.10;;;6.23;;
6973;SDS011;3527;52.376;8.990;2023-02-13T11:32:24;11.30;;;7.00;;
6973;SDS011;3527;52.376;8.990;2023-02-13T11:34:55;9.33;;;5.80;;
6973;SDS011;3527;52.376;8.990;2023-02-13T11:37:26;10.43;;;6.03;;
6973;SDS011;3527;52.376;8.990;2023-02-13T11:39:58;10.10;;;6.13;;
6973;SDS011;3527;52.376;8.990;2023-02-13T11:42:27;11.03;;;6.10;;
6973;SDS011;3527;52.376;8.990;2023-02-13T11:47:45;11.30;;;6.53;;
6973;SDS011;3527;52.376;8.990;2023-02-13T11:50:20;10.10;;;6.47;;
6973;SDS011;3527;52.376;8.990;2023-02-13T11:52:55;10.77;;;6.43;;
6973;SDS011;3527;52.376;8.990;2023-02-13T11:55:35;10.53;;;6.63;;
6973;SDS011;3527;52.376;8.990;2023-02-13T12:00:39;11.37;;;6.83;;
6973;SDS011;3527;52.376;8.990;2023-02-13T12:03:29;13.40;;;6.77;;
6973;SDS011;3527;52.376;8.990;2023-02-13T12:06:01;10.97;;;6.50;;
6973;SDS011;3527;52.376;8.990;2023-02-13T12:08:40;12.63;;;7.40;;
6973;SDS011;3527;52.376;8.990;2023-02-13T12:13:48;11.83;;;8.07;;
6973;SDS011;3527;52.376;8.990;2023-02-13T12:16:32;11.17;;;7.30;;
6973;SDS011;3527;52.376;8.990;2023-02-13T12:19:05;10.53;;;6.50;;
6973;SDS011;3527;52.376;8.990;2023-02-13T12:21:46;12.70;;;7.57;;
6973;SDS011;3527;52.376;8.990;2023-02-13T12:24:40;10.10;;;6.83;;
6973;SDS011;3527;52.376;8.990;2023-02-13T12:30:06;13.60;;;7.73;;
6973;SDS011;3527;52.376;8.990;2023-02-13T12:35:48;12.00;;;7.90;;
6973;SDS011;3527;52.376;8.990;2023-02-13T12:41:11;14.60;;;7.93;;
6973;SDS011;3527;52.376;8.990;2023-02-13T13:16:37;12.77;;;8.20;;
6973;SDS011;3527;52.376;8.990;2023-02-13T13:19:17;14.17;;;8.50;;
6973;SDS011;3527;52.376;8.990;2023-02-13T13:27:36;14.37;;;8.23;;
6973;SDS011;3527;52.376;8.990;2023-02-13T13:32:42;16.43;;;8.80;;
6973;SDS011;3527;52.376;8.990;2023-02-13T13:35:12;14.73;;;8.93;;
6973;SDS011;3527;52.376;8.990;2023-02-13T13:38:04;14.77;;;9.20;;
6973;SDS011;3527;52.376;8.990;2023-02-13T13:51:31;14.30;;;9.40;;
6973;SDS011;3527;52.376;8.990;2023-02-13T13:56:25;14.93;;;9.53;;
6973;SDS011;3527;52.376;8.990;2023-02-13T13:59:16;12.77;;;9.13;;
6973;SDS011;3527;52.376;8.990;2023-02-13T14:01:43;17.40;;;10.07;;
6973;SDS011;3527;52.376;8.990;2023-02-13T14:09:37;13.53;;;9.80;;
6973;SDS011;3527;52.376;8.990;2023-02-13T14:14:55;13.47;;;9.13;;
6973;SDS011;3527;52.376;8.990;2023-02-13T14:20:19;14.27;;;8.80;;
6973;SDS011;3527;52.376;8.990;2023-02-13T14:22:48;13.27;;;8.43;;
6973;SDS011;3527;52.376;8.990;2023-02-13T14:25:23;13.27;;;8.33;;
6973;SDS011;3527;52.376;8.990;2023-02-13T14:27:55;11.60;;;7.57;;
6973;SDS011;3527;52.376;8.990;2023-02-13T14:30:26;11.10;;;7.90;;
6973;SDS011;3527;52.376;8.990;2023-02-13T14:32:56;11.07;;;7.67;;
6973;SDS011;3527;52.376;8.990;2023-02-13T14:35:31;12.33;;;8.83;;
6973;SDS011;3527;52.376;8.990;2023-02-13T14:38:00;12.70;;;8.63;;
6973;SDS011;3527;52.376;8.990;2023-02-13T14:43:25;12.43;;;8.13;;
6973;SDS011;3527;52.376;8.990;2023-02-13T14:45:58;11.80;;;7.23;;
6973;SDS011;3527;52.376;8.990;2023-02-13T14:51:47;10.73;;;7.97;;
6973;SDS011;3527;52.376;8.990;2023-02-13T14:56:51;12.97;;;8.13;;
6973;SDS011;3527;52.376;8.990;2023-02-13T14:59:24;10.43;;;7.83;;
6973;SDS011;3527;52.376;8.990;2023-02-13T15:01:58;11.53;;;7.53;;
6973;SDS011;3527;52.376;8.990;2023-02-13T15:04:34;12.37;;;7.80;;
6973;SDS011;3527;52.376;8.990;2023-02-13T15:07:13;10.17;;;6.80;;
6973;SDS011;3527;52.376;8.990;2023-02-13T15:10:26;9.37;;;6.23;;
6973;SDS011;3527;52.376;8.990;2023-02-13T15:12:58;12.40;;;7.33;;
6973;SDS011;3527;52.376;8.990;2023-02-13T15:15:30;11.97;;;6.53;;
6973;SDS011;3527;52.376;8.990;2023-02-13T15:18:00;10.70;;;6.50;;
6973;SDS011;3527;52.376;8.990;2023-02-13T15:20:31;10.83;;;6.37;;
6973;SDS011;3527;52.376;8.990;2023-02-13T15:23:00;8.23;;;5.90;;
6973;SDS011;3527;52.376;8.990;2023-02-13T15:27:54;9.43;;;5.73;;
6973;SDS011;3527;52.376;8.990;2023-02-13T15:30:26;7.13;;;5.10;;
6973;SDS011;3527;52.376;8.990;2023-02-13T15:38:15;8.83;;;5.50;;
6973;SDS011;3527;52.376;8.990;2023-02-13T15:40:57;10.33;;;6.50;;
6973;SDS011;3527;52.376;8.990;2023-02-13T15:43:37;7.80;;;5.70;;
6973;SDS011;3527;52.376;8.990;2023-02-13T15:46:17;8.10;;;6.23;;
6973;SDS011;3527;52.376;8.990;2023-02-13T15:48:46;9.93;;;6.23;;
6973;SDS011;3527;52.376;8.990;2023-02-13T15:51:20;7.43;;;5.57;;
6973;SDS011;3527;52.376;8.990;2023-02-13T15:53:57;8.70;;;5.27;;
6973;SDS011;3527;52.376;8.990;2023-02-13T15:56:26;8.60;;;5.47;;
6973;SDS011;3527;52.376;8.990;2023-02-13T15:58:53;8.10;;;5.67;;
6973;SDS011;3527;52.376;8.990;2023-02-13T16:01:21;9.00;;;5.40;;
6973;SDS011;3527;52.376;8.990;2023-02-13T16:03:57;7.17;;;4.90;;
6973;SDS011;3527;52.376;8.990;2023-02-13T16:06:28;7.00;;;5.60;;
6973;SDS011;3527;52.376;8.990;2023-02-13T16:08:56;7.23;;;5.40;;
6973;SDS011;3527;52.376;8.990;2023-02-13T16:16:20;6.90;;;5.27;;
6973;SDS011;3527;52.376;8.990;2023-02-13T16:18:49;6.87;;;4.70;;
6973;SDS011;3527;52.376;8.990;2023-02-13T16:21:21;9.33;;;5.57;;
6973;SDS011;3527;52.376;8.990;2023-02-13T16:23:56;6.80;;;5.07;;
6973;SDS011;3527;52.376;8.990;2023-02-13T16:26:25;7.80;;;5.00;;
6973;SDS011;3527;52.376;8.990;2023-02-13T16:28:53;7.40;;;4.63;;
6973;SDS011;3527;52.376;8.990;2023-02-13T16:31:21;5.80;;;4.10;;
6973;SDS011;3527;52.376;8.990;2023-02-13T16:33:49;7.93;;;4.33;;
6973;SDS011;3527;52.376;8.990;2023-02-13T16:36:17;6.63;;;4.17;;
6973;SDS011;3527;52.376;8.990;2023-02-13T16:38:52;6.07;;;4.03;;
6973;SDS011;3527;52.376;8.990;2023-02-13T16:43:48;8.60;;;5.53;;
6973;SDS011;3527;52.376;8.990;2023-02-13T16:46:31;8.23;;;5.10;;
6973;SDS011;3527;52.376;8.990;2023-02-13T16:51:42;7.77;;;5.20;;
6973;SDS011;3527;52.376;8.990;2023-02-13T16:59:17;6.43;;;4.50;;
6973;SDS011;3527;52.376;8.990;2023-02-13T17:02:02;6.17;;;4.20;;
6973;SDS011;3527;52.376;8.990;2023-02-13T17:04:38;6.77;;;4.27;;
6973;SDS011;3527;52.376;8.990;2023-02-13T17:07:07;9.20;;;4.83;;
6973;SDS011;3527;52.376;8.990;2023-02-13T17:09:38;8.27;;;4.30;;
6973;SDS011;3527;52.376;8.990;2023-02-13T17:12:09;9.80;;;4.90;;
6973;SDS011;3527;52.376;8.990;2023-02-13T17:14:39;7.37;;;5.03;;
6973;SDS011;3527;52.376;8.990;2023-02-13T17:17:11;9.13;;;5.50;;
6973;SDS011;3527;52.376;8.990;2023-02-13T17:19:43;6.63;;;5.33;;
6973;SDS011;3527;52.376;8.990;2023-02-13T17:22:17;11.10;;;5.70;;
6973;SDS011;3527;52.376;8.990;2023-02-13T17:24:46;9.60;;;5.63;;
6973;SDS011;3527;52.376;8.990;2023-02-13T17:27:13;8.70;;;5.47;;
6973;SDS011;3527;52.376;8.990;2023-02-13T17:29:40;8.87;;;5.90;;
6973;SDS011;3527;52.376;8.990;2023-02-13T17:32:07;9.83;;;6.80;;
6973;SDS011;3527;52.376;8.990;2023-02-13T17:34:41;9.30;;;6.90;;
6973;SDS011;3527;52.376;8.990;2023-02-13T17:37:12;9.40;;;6.77;;
6973;SDS011;3527;52.376;8.990;2023-02-13T17:39:42;9.77;;;6.90;;
6973;SDS011;3527;52.376;8.990;2023-02-13T17:42:11;8.70;;;6.73;;
6973;SDS011;3527;52.376;8.990;2023-02-13T17:44:42;9.57;;;6.57;;
6973;SDS011;3527;52.376;8.990;2023-02-13T17:47:08;9.27;;;7.20;;
6973;SDS011;3527;52.376;8.990;2023-02-13T17:49:35;8.70;;;7.50;;
6973;SDS011;3527;52.376;8.990;2023-02-13T17:52:02;10.07;;;7.20;;
6973;SDS011;3527;52.376;8.990;2023-02-13T17:54:30;9.43;;;6.90;;
6973;SDS011;3527;52.376;8.990;2023-02-13T17:56:58;8.93;;;6.57;;
6973;SDS011;3527;52.376;8.990;2023-02-13T17:59:25;10.23;;;6.97;;
6973;SDS011;3527;52.376;8.990;2023-02-13T18:01:52;9.77;;;6.83;;
6973;SDS011;3527;52.376;8.990;2023-02-13T18:04:19;9.63;;;7.07;;
6973;SDS011;3527;52.376;8.990;2023-02-13T18:06:49;10.00;;;7.50;;
6973;SDS011;3527;52.376;8.990;2023-02-13T18:09:17;12.67;;;8.13;;
6973;SDS011;3527;52.376;8.990;2023-02-13T18:11:47;11.07;;;7.90;;
6973;SDS011;3527;52.376;8.990;2023-02-13T18:14:30;10.17;;;6.80;;
6973;SDS011;3527;52.376;8.990;2023-02-13T18:16:59;9.03;;;5.87;;